TimeEDT,TemperatureF,Dew PointF,Humidity,Sea Level PressureIn,VisibilityMPH,Wind Direction,Wind SpeedMPH,Gust SpeedMPH,PrecipitationIn,Events,Conditions,WindDirDegrees,DateUTC
12:15 AM,43.2,40.5,90,29.89,10.0,NNW,8.1,-,N/A,,Overcast,340,2013-05-11 04:15:00
12:35 AM,43.2,40.3,90,29.89,10.0,NNW,8.1,-,N/A,,Overcast,340,2013-05-11 04:35:00
12:54 AM,43.3,40.3,89,29.90,10.0,North,5.8,-,N/A,,Overcast,350,2013-05-11 04:54:00
1:15 AM,43.2,40.1,89,29.90,10.0,North,6.9,-,N/A,,Overcast,360,2013-05-11 05:15:00
1:35 AM,43.2,40.1,89,29.89,10.0,North,4.6,-,N/A,,Overcast,350,2013-05-11 05:35:00
1:54 AM,42.8,39.6,88,29.89,10.0,NNW,4.6,-,N/A,,Overcast,340,2013-05-11 05:54:00
2:15 AM,42.8,39.6,88,29.88,5.0,NNW,5.8,-,N/A,,Overcast,330,2013-05-11 06:15:00
2:35 AM,42.8,40.1,90,29.88,7.0,Calm,Calm,-,N/A,,Overcast,0,2013-05-11 06:35:00
2:54 AM,42.8,40.1,90,29.88,7.0,NW,5.8,-,N/A,,Overcast,320,2013-05-11 06:54:00
3:15 AM,42.8,40.1,90,29.89,10.0,NW,3.5,-,N/A,,Overcast,310,2013-05-11 07:15:00
3:35 AM,43.0,40.1,90,29.89,7.0,NW,6.9,-,N/A,,Overcast,310,2013-05-11 07:35:00
3:54 AM,42.8,40.3,91,29.89,3.0,NW,6.9,-,N/A,,Overcast,310,2013-05-11 07:54:00
4:15 AM,42.8,40.3,91,29.88,7.0,WNW,6.9,-,N/A,,Overcast,290,2013-05-11 08:15:00
4:34 AM,42.8,40.1,90,29.88,10.0,WNW,6.9,-,N/A,,Overcast,290,2013-05-11 08:34:00
4:55 AM,43.0,40.1,90,29.88,10.0,WNW,6.9,-,N/A,,Overcast,300,2013-05-11 08:55:00
5:15 AM,43.2,40.1,89,29.88,10.0,WNW,4.6,-,N/A,,Overcast,290,2013-05-11 09:15:00
5:34 AM,43.5,40.5,89,29.88,10.0,West,5.8,-,N/A,,Overcast,280,2013-05-11 09:34:00
5:55 AM,43.7,41.0,90,29.88,10.0,West,3.5,-,N/A,,Overcast,280,2013-05-11 09:55:00
6:15 AM,44.2,41.2,89,29.87,10.0,West,4.6,-,N/A,,Overcast,260,2013-05-11 10:15:00
6:34 AM,43.9,41.2,90,29.88,7.0,West,4.6,-,N/A,,Overcast,260,2013-05-11 10:34:00
6:55 AM,44.2,41.9,91,29.88,3.0,West,4.6,-,N/A,,Overcast,260,2013-05-11 10:55:00
7:15 AM,44.6,42.3,91,29.87,5.0,WSW,3.5,-,N/A,,Overcast,240,2013-05-11 11:15:00
7:34 AM,45.0,42.8,92,29.87,7.0,West,5.8,-,N/A,,Overcast,270,2013-05-11 11:34:00
7:55 AM,45.5,43.0,91,29.87,7.0,West,5.8,-,N/A,,Overcast,260,2013-05-11 11:55:00
8:15 AM,46.0,43.5,91,29.87,10.0,West,8.1,-,N/A,,Overcast,280,2013-05-11 12:15:00
8:34 AM,46.4,43.2,88,29.86,7.0,West,8.1,-,N/A,,Overcast,280,2013-05-11 12:34:00
8:55 AM,46.9,43.7,88,29.86,7.0,West,6.9,-,N/A,,Overcast,260,2013-05-11 12:55:00
9:14 AM,48.2,44.6,87,29.85,10.0,West,6.9,-,N/A,,Overcast,260,2013-05-11 13:14:00
9:35 AM,48.4,44.6,87,29.85,10.0,West,9.2,-,N/A,,Overcast,270,2013-05-11 13:35:00
9:55 AM,48.6,44.1,84,29.84,10.0,West,8.1,-,N/A,,Overcast,280,2013-05-11 13:55:00
10:14 AM,50.0,44.6,82,29.84,10.0,WSW,4.6,-,N/A,,Overcast,250,2013-05-11 14:14:00
10:35 AM,50.2,45.0,82,29.84,10.0,West,5.8,-,N/A,,Overcast,260,2013-05-11 14:35:00
10:55 AM,51.8,44.8,77,29.83,10.0,WSW,8.1,-,N/A,,Overcast,250,2013-05-11 14:55:00
11:14 AM,52.2,44.8,76,29.83,10.0,WSW,8.1,-,N/A,,Overcast,250,2013-05-11 15:14:00
11:35 AM,55.0,44.1,67,29.81,10.0,WSW,6.9,-,N/A,,Mostly Cloudy,250,2013-05-11 15:35:00
11:54 AM,54.7,44.2,68,29.81,10.0,SSW,3.5,-,N/A,,Scattered Clouds,200,2013-05-11 15:54:00
12:15 PM,56.3,42.3,59,29.80,10.0,SSW,4.6,-,N/A,,Scattered Clouds,200,2013-05-11 16:15:00
12:35 PM,57.9,43.2,58,29.79,10.0,South,8.1,-,N/A,,Clear,190,2013-05-11 16:35:00
12:54 PM,58.5,43.9,58,29.78,10.0,SW,8.1,-,N/A,,Scattered Clouds,220,2013-05-11 16:54:00
1:15 PM,59.2,42.6,54,29.77,10.0,SSW,10.4,-,N/A,,Scattered Clouds,200,2013-05-11 17:15:00
1:35 PM,60.8,43.5,53,29.76,10.0,South,10.4,17.3,N/A,,Mostly Cloudy,180,2013-05-11 17:35:00
1:54 PM,59.9,41.9,51,29.76,10.0,SW,8.1,-,N/A,,Overcast,230,2013-05-11 17:54:00
2:15 PM,59.9,42.6,53,29.75,10.0,SW,8.1,-,N/A,,Overcast,220,2013-05-11 18:15:00
2:35 PM,60.3,42.6,52,29.74,10.0,SW,9.2,17.3,N/A,,Overcast,230,2013-05-11 18:35:00
2:54 PM,62.1,44.1,52,29.73,10.0,SW,12.7,16.1,N/A,,Mostly Cloudy,230,2013-05-11 18:54:00
3:15 PM,63.1,42.6,47,29.72,10.0,SSW,11.5,18.4,N/A,,Scattered Clouds,210,2013-05-11 19:15:00
3:34 PM,61.7,40.8,46,29.71,10.0,SSW,11.5,19.6,N/A,,Mostly Cloudy,210,2013-05-11 19:34:00
3:55 PM,61.7,40.6,46,29.71,10.0,SW,15.0,-,N/A,,Overcast,220,2013-05-11 19:55:00
4:15 PM,60.8,39.9,46,29.71,10.0,SSW,12.7,-,N/A,,Overcast,210,2013-05-11 20:15:00
4:34 PM,55.4,46.4,72,29.74,4.0,WSW,16.1,24.2,N/A,Rain,Heavy Rain,240,2013-05-11 20:34:00
4:55 PM,53.2,48.6,84,29.74,5.0,SW,11.5,-,N/A,Rain,Heavy Rain,230,2013-05-11 20:55:00
5:15 PM,53.2,49.3,86,29.73,10.0,SW,12.7,18.4,N/A,,Overcast,220,2013-05-11 21:15:00
5:34 PM,53.6,48.2,82,29.75,10.0,West,23.0,29.9,N/A,,Overcast,270,2013-05-11 21:34:00
5:55 PM,50.7,46.0,84,29.77,7.0,West,18.4,26.5,N/A,,Overcast,270,2013-05-11 21:55:00
6:14 PM,49.1,41.9,76,29.79,10.0,WNW,23.0,31.1,N/A,,Overcast,300,2013-05-11 22:14:00
6:34 PM,47.7,39.2,72,29.81,10.0,WNW,23.0,29.9,N/A,,Overcast,300,2013-05-11 22:34:00
6:55 PM,45.5,37.4,73,29.83,10.0,WNW,24.2,32.2,N/A,,Overcast,290,2013-05-11 22:55:00
7:14 PM,43.3,36.0,75,29.85,10.0,WNW,21.9,31.1,N/A,,Overcast,300,2013-05-11 23:14:00
7:35 PM,43.2,33.8,70,29.87,10.0,WNW,12.7,24.2,N/A,,Mostly Cloudy,300,2013-05-11 23:35:00
7:55 PM,43.3,32.4,65,29.88,10.0,WNW,17.3,24.2,N/A,,Mostly Cloudy,290,2013-05-11 23:55:00
8:14 PM,43.2,32.0,65,29.88,10.0,WNW,16.1,20.7,N/A,,Scattered Clouds,300,2013-05-12 00:14:00
8:35 PM,42.8,32.0,66,29.88,10.0,WNW,11.5,16.1,N/A,,Scattered Clouds,300,2013-05-12 00:35:00
8:55 PM,41.9,32.0,68,29.88,10.0,WNW,9.2,-,N/A,,Clear,290,2013-05-12 00:55:00
9:14 PM,41.4,32.0,69,29.89,10.0,West,9.2,-,N/A,,Clear,280,2013-05-12 01:14:00
9:35 PM,40.3,32.0,72,29.89,10.0,West,8.1,-,N/A,,Clear,270,2013-05-12 01:35:00
9:55 PM,40.1,32.4,74,29.89,10.0,West,6.9,-,N/A,,Clear,270,2013-05-12 01:55:00
10:14 PM,39.6,32.4,75,29.89,10.0,WSW,4.6,-,N/A,,Clear,250,2013-05-12 02:14:00
10:35 PM,39.2,32.7,78,29.89,10.0,WSW,3.5,-,N/A,,Clear,240,2013-05-12 02:35:00
10:54 PM,39.2,32.9,78,29.88,10.0,SW,3.5,-,N/A,,Scattered Clouds,230,2013-05-12 02:54:00
11:35 PM,39.6,33.8,80,29.88,10.0,WSW,10.4,-,N/A,,Clear,250,2013-05-12 03:35:00
11:54 PM,40.1,34.3,80,29.88,10.0,WSW,9.2,-,N/A,,Clear,250,2013-05-12 03:54:00